createdAt,value
2023-03-21T00:00:48.550Z,9.97
2023-03-21T00:03:24.935Z,9.99
2023-03-21T00:05:55.855Z,10.01
2023-03-21T00:08:26.153Z,10.03
2023-03-21T00:10:58.601Z,10.01
2023-03-21T00:13:28.442Z,10.04
2023-03-21T00:16:13.893Z,10.03
2023-03-21T00:18:48.895Z,10.04
2023-03-21T00:24:09.566Z,9.82
2023-03-21T00:26:39.484Z,9.92
2023-03-21T00:29:08.636Z,10.02
2023-03-21T00:31:38.150Z,10.01
2023-03-21T00:34:07.317Z,9.99
2023-03-21T00:36:38.324Z,10.04
2023-03-21T00:39:07.574Z,10.06
2023-03-21T00:41:44.319Z,10.08
2023-03-21T00:44:16.081Z,10.08
2023-03-21T00:46:57.440Z,10.08
2023-03-21T00:49:34.122Z,10.04
2023-03-21T00:52:18.560Z,9.98
2023-03-21T00:54:49.426Z,10.07
2023-03-21T00:57:20.367Z,10.00
2023-03-21T00:59:51.269Z,9.99
2023-03-21T01:02:23.351Z,10.02
2023-03-21T01:04:52.783Z,10.09
2023-03-21T01:07:23.617Z,10.08
2023-03-21T01:09:52.744Z,10.08
2023-03-21T01:12:22.357Z,10.12
2023-03-21T01:14:51.480Z,10.00
2023-03-21T01:17:20.925Z,10.02
2023-03-21T01:19:52.273Z,10.01
2023-03-21T01:22:23.410Z,10.09
2023-03-21T01:24:56.865Z,10.09
2023-03-21T01:27:27.923Z,10.12
2023-03-21T01:29:57.697Z,10.06
2023-03-21T01:32:27.200Z,10.09
2023-03-21T01:34:56.428Z,10.10
2023-03-21T01:37:27.688Z,10.12
2023-03-21T01:39:56.791Z,10.05
2023-03-21T01:42:26.357Z,10.10
2023-03-21T01:44:56.889Z,10.09
2023-03-21T01:47:26.362Z,10.10
2023-03-21T01:49:56.823Z,10.12
2023-03-21T01:52:37.874Z,10.12
2023-03-21T01:55:08.364Z,10.13
2023-03-21T01:57:47.260Z,10.10
2023-03-21T02:00:21.943Z,10.10
2023-03-21T02:03:02.983Z,10.09
2023-03-21T02:05:41.636Z,10.09
2023-03-21T02:08:13.371Z,10.09
2023-03-21T02:10:42.551Z,10.08
2023-03-21T02:13:11.885Z,10.09
2023-03-21T02:15:42.304Z,10.09
2023-03-21T02:18:12.675Z,10.10
2023-03-21T02:20:47.217Z,10.10
2023-03-21T02:23:31.185Z,10.05
2023-03-21T02:26:06.770Z,10.06
2023-03-21T02:28:36.965Z,10.01
2023-03-21T02:31:13.919Z,10.04
2023-03-21T02:33:58.380Z,10.03
2023-03-21T02:36:33.895Z,9.95
2023-03-21T02:39:08.088Z,9.95
2023-03-21T02:41:40.441Z,9.96
2023-03-21T02:44:11.315Z,9.98
2023-03-21T02:46:45.599Z,10.00
2023-03-21T02:49:18.832Z,10.00
2023-03-21T02:51:48.228Z,10.01
2023-03-21T02:54:34.935Z,10.02
2023-03-21T02:57:09.506Z,10.02
2023-03-21T02:59:44.508Z,9.98
2023-03-21T03:02:23.242Z,9.88
2023-03-21T03:04:52.740Z,9.84
2023-03-21T03:07:24.777Z,9.80
2023-03-21T03:10:00.818Z,9.82
2023-03-21T03:12:32.952Z,9.67
2023-03-21T03:15:05.352Z,9.67
2023-03-21T03:17:38.379Z,9.56
2023-03-21T03:20:16.550Z,9.51
2023-03-21T03:22:49.584Z,9.36
2023-03-21T03:25:32.615Z,9.34
2023-03-21T03:28:09.027Z,9.46
2023-03-21T03:30:45.019Z,9.42
2023-03-21T03:33:18.052Z,9.38
2023-03-21T03:35:55.775Z,9.49
2023-03-21T03:38:31.880Z,9.50
2023-03-21T03:41:03.372Z,9.51
2023-03-21T03:43:34.101Z,9.53
2023-03-21T03:46:10.562Z,9.55
2023-03-21T03:48:46.737Z,9.55
2023-03-21T03:51:17.471Z,9.57
2023-03-21T03:53:46.968Z,9.57
2023-03-21T03:56:17.893Z,9.57
2023-03-21T03:58:47.051Z,9.54
2023-03-21T04:01:17.728Z,9.52
2023-03-21T04:03:50.548Z,9.56
2023-03-21T04:06:22.297Z,9.49
2023-03-21T04:08:51.622Z,9.52
2023-03-21T04:11:22.517Z,9.46
2023-03-21T04:13:52.156Z,9.52
2023-03-21T04:16:23.463Z,9.33
2023-03-21T04:18:52.692Z,9.29
2023-03-21T04:21:22.853Z,9.32
2023-03-21T04:23:54.926Z,9.33
2023-03-21T04:26:25.849Z,9.31
2023-03-21T04:28:54.985Z,9.28
2023-03-21T04:31:27.369Z,9.18
2023-03-21T04:33:57.177Z,9.10
2023-03-21T04:36:28.844Z,9.17
2023-03-21T04:39:01.671Z,9.15
2023-03-21T04:41:32.846Z,9.16
2023-03-21T04:44:02.308Z,9.18
2023-03-21T04:46:31.826Z,9.13
2023-03-21T04:49:00.981Z,9.07
2023-03-21T04:51:30.473Z,9.06
2023-03-21T04:53:59.548Z,8.99
2023-03-21T04:56:32.473Z,8.99
2023-03-21T04:59:04.130Z,8.97
2023-03-21T05:01:34.148Z,8.92
2023-03-21T05:04:03.459Z,8.95
2023-03-21T05:06:32.998Z,8.97
2023-03-21T05:09:05.527Z,8.98
2023-03-21T05:11:37.821Z,8.92
2023-03-21T05:14:08.663Z,8.94
2023-03-21T05:16:38.789Z,8.92
2023-03-21T05:19:07.972Z,8.92
2023-03-21T05:21:42.117Z,8.94
2023-03-21T05:24:13.010Z,8.93
2023-03-21T05:26:42.586Z,8.94
2023-03-21T05:29:13.568Z,8.96
2023-03-21T05:31:43.067Z,8.95
2023-03-21T05:34:12.299Z,8.92
2023-03-21T05:36:41.786Z,8.98
2023-03-21T05:39:10.949Z,8.91
2023-03-21T05:41:40.400Z,8.96
2023-03-21T05:44:09.503Z,8.74
2023-03-21T05:46:40.426Z,8.68
2023-03-21T05:49:09.486Z,8.68
2023-03-21T05:51:38.912Z,8.74
2023-03-21T05:54:08.161Z,8.77
2023-03-21T05:56:37.691Z,8.75
2023-03-21T05:59:07.460Z,8.67
2023-03-21T06:01:36.910Z,8.72
2023-03-21T06:04:07.565Z,8.64
2023-03-21T06:06:37.007Z,8.77
2023-03-21T06:09:06.778Z,8.68
2023-03-21T06:11:36.875Z,8.71
2023-03-21T06:14:05.984Z,8.80
2023-03-21T06:16:35.372Z,8.72
2023-03-21T06:19:04.515Z,8.70
2023-03-21T06:21:35.642Z,8.79
2023-03-21T06:24:04.929Z,8.83
2023-03-21T06:26:34.371Z,8.87
2023-03-21T06:29:03.531Z,8.84
2023-03-21T06:31:32.936Z,8.91
2023-03-21T06:34:02.065Z,8.91
2023-03-21T06:36:31.441Z,8.97
2023-03-21T06:39:01.941Z,9.02
2023-03-21T06:41:31.461Z,9.02
2023-03-21T06:44:00.745Z,8.86
2023-03-21T06:46:30.239Z,9.02
2023-03-21T06:48:59.356Z,9.09
2023-03-21T06:51:28.848Z,9.09
2023-03-21T06:53:58.017Z,9.08
2023-03-21T06:56:28.920Z,9.05
2023-03-21T06:58:57.999Z,9.09
2023-03-21T07:01:28.000Z,9.08
2023-03-21T07:03:59.028Z,9.08
2023-03-21T07:06:28.671Z,8.93
2023-03-21T07:08:58.162Z,8.96
2023-03-21T07:11:29.109Z,8.97
2023-03-21T07:13:58.164Z,9.08
2023-03-21T07:16:27.662Z,9.03
2023-03-21T07:18:56.831Z,8.89
2023-03-21T07:21:26.364Z,8.97
2023-03-21T07:23:55.577Z,9.18
2023-03-21T07:26:25.100Z,9.04
2023-03-21T07:28:55.656Z,9.19
2023-03-21T07:31:26.963Z,9.05
2023-03-21T07:33:56.460Z,9.03
2023-03-21T07:36:26.560Z,9.05
2023-03-21T07:38:55.723Z,9.03
2023-03-21T07:41:25.436Z,9.10
2023-03-21T07:43:55.910Z,9.09
2023-03-21T07:46:25.516Z,9.09
2023-03-21T07:48:54.685Z,9.19
2023-03-21T07:51:24.186Z,9.20
2023-03-21T07:53:53.310Z,9.18
2023-03-21T07:56:22.859Z,9.26
2023-03-21T07:58:52.264Z,9.09
2023-03-21T08:04:45.439Z,9.27
2023-03-21T08:09:17.868Z,9.35
2023-03-21T08:10:38.012Z,9.26
2023-03-21T08:13:07.748Z,9.24
2023-03-21T08:15:37.918Z,9.09
2023-03-21T08:18:16.373Z,8.86
2023-03-21T08:20:46.999Z,8.99
2023-03-21T08:23:16.469Z,8.81
2023-03-21T08:25:45.604Z,8.73
2023-03-21T08:28:15.110Z,8.96
2023-03-21T08:30:44.509Z,9.25
2023-03-21T08:33:14.524Z,9.29
2023-03-21T08:35:43.975Z,9.36
2023-03-21T08:38:15.560Z,9.37
2023-03-21T08:40:44.823Z,9.58
2023-03-21T08:43:14.912Z,9.68
2023-03-21T08:45:44.296Z,9.47
2023-03-21T08:48:13.892Z,9.50
2023-03-21T08:50:43.247Z,9.56
2023-03-21T08:53:12.760Z,9.38
2023-03-21T08:55:43.332Z,9.61
2023-03-21T08:58:18.435Z,9.63
2023-03-21T09:00:47.658Z,9.67
2023-03-21T09:03:25.029Z,9.75
2023-03-21T09:06:01.492Z,9.59
2023-03-21T09:08:46.291Z,9.50
2023-03-21T09:11:24.135Z,8.99
2023-03-21T09:13:54.308Z,9.38
2023-03-21T09:16:25.395Z,9.52
2023-03-21T09:18:56.014Z,9.54
2023-03-21T09:21:25.932Z,9.55
2023-03-21T09:24:06.060Z,9.21
2023-03-21T09:26:37.757Z,9.05
2023-03-21T09:29:07.921Z,9.38
2023-03-21T09:31:44.214Z,9.58
2023-03-21T09:34:21.078Z,9.60
2023-03-21T09:36:59.873Z,9.72
2023-03-21T09:39:38.009Z,9.84
2023-03-21T09:42:15.995Z,9.80
2023-03-21T09:44:55.125Z,9.86
2023-03-21T09:47:49.779Z,9.85
2023-03-21T09:50:35.214Z,9.95
2023-03-21T09:53:24.901Z,9.64
2023-03-21T09:56:12.014Z,9.80
2023-03-21T09:58:58.864Z,9.86
2023-03-21T10:01:44.376Z,10.06
2023-03-21T10:04:46.939Z,10.15
2023-03-21T10:07:20.076Z,10.15
2023-03-21T10:09:55.443Z,9.91
2023-03-21T10:12:31.407Z,10.11
2023-03-21T10:15:18.113Z,9.78
2023-03-21T10:18:08.554Z,10.12
2023-03-21T10:20:41.145Z,10.39
2023-03-21T10:23:20.730Z,10.58
2023-03-21T10:26:12.898Z,10.42
2023-03-21T10:28:53.106Z,10.04
2023-03-21T10:31:26.218Z,10.27
2023-03-21T10:33:55.990Z,10.65
2023-03-21T10:36:25.948Z,10.73
2023-03-21T10:38:55.707Z,10.74
2023-03-21T10:41:24.886Z,10.72
2023-03-21T10:44:11.631Z,10.91
2023-03-21T10:46:53.345Z,10.93
2023-03-21T10:49:23.137Z,10.92
2023-03-21T10:51:52.904Z,10.93
2023-03-21T10:54:22.773Z,10.76
2023-03-21T10:56:54.647Z,10.52
2023-03-21T10:59:24.281Z,10.79
2023-03-21T11:01:56.662Z,10.65
2023-03-21T11:04:26.840Z,11.03
2023-03-21T11:06:57.103Z,11.22
2023-03-21T11:09:29.036Z,11.26
2023-03-21T11:12:04.076Z,11.26
2023-03-21T11:14:36.683Z,11.27
2023-03-21T11:17:17.294Z,11.38
2023-03-21T11:19:48.882Z,11.64
2023-03-21T11:22:18.369Z,11.75
2023-03-21T11:24:50.413Z,11.72
2023-03-21T11:27:19.752Z,11.53
2023-03-21T11:29:49.644Z,11.54
2023-03-21T11:32:23.838Z,11.78
2023-03-21T11:34:55.143Z,11.90
2023-03-21T11:37:27.272Z,12.06
2023-03-21T11:39:57.141Z,11.60
2023-03-21T11:42:28.709Z,11.36
2023-03-21T11:45:06.574Z,11.66
2023-03-21T11:47:37.574Z,11.82
2023-03-21T11:50:12.388Z,11.91
2023-03-21T11:52:42.890Z,12.07
2023-03-21T11:55:20.607Z,11.97
2023-03-21T11:57:52.039Z,12.26
2023-03-21T12:00:23.969Z,12.29
2023-03-21T12:03:13.613Z,12.36
2023-03-21T12:05:44.338Z,12.53
2023-03-21T12:08:17.019Z,12.61
2023-03-21T12:10:47.366Z,12.70
2023-03-21T12:13:20.265Z,12.61
2023-03-21T12:15:53.126Z,12.65
2023-03-21T12:18:30.690Z,12.81
2023-03-21T12:21:00.460Z,12.91
2023-03-21T12:23:32.933Z,13.04
2023-03-21T12:26:05.511Z,13.09
2023-03-21T12:28:37.033Z,12.90
2023-03-21T12:31:08.952Z,12.74
2023-03-21T12:33:44.259Z,12.45
2023-03-21T12:36:20.571Z,12.85
2023-03-21T12:38:51.770Z,12.93
2023-03-21T12:41:25.837Z,12.87
2023-03-21T12:43:56.317Z,12.91
2023-03-21T12:46:27.411Z,13.18
2023-03-21T12:48:58.994Z,13.42
2023-03-21T12:51:32.516Z,13.45
2023-03-21T12:54:03.717Z,13.68
2023-03-21T12:56:33.876Z,13.65
2023-03-21T12:59:04.923Z,14.06
2023-03-21T13:01:34.873Z,14.26
2023-03-21T13:04:16.176Z,14.43
2023-03-21T13:06:45.921Z,14.71
2023-03-21T13:09:18.118Z,14.94
2023-03-21T13:11:49.268Z,15.12
2023-03-21T13:14:19.075Z,15.11
2023-03-21T13:16:49.595Z,15.19
2023-03-21T13:19:21.735Z,15.07
2023-03-21T13:21:53.126Z,15.30
2023-03-21T13:24:26.323Z,15.16
2023-03-21T13:27:00.811Z,15.50
2023-03-21T13:29:31.051Z,15.36
2023-03-21T13:32:08.897Z,15.43
2023-03-21T13:34:41.563Z,15.28
2023-03-21T13:37:14.347Z,15.05
2023-03-21T13:39:44.653Z,14.49
2023-03-21T13:42:19.255Z,14.53
2023-03-21T13:44:50.536Z,14.62
2023-03-21T13:47:40.898Z,14.89
2023-03-21T13:50:30.591Z,14.46
2023-03-21T13:53:18.404Z,14.74
2023-03-21T13:55:49.509Z,14.57
2023-03-21T13:58:25.260Z,14.68
2023-03-21T14:01:12.470Z,14.69
2023-03-21T14:03:42.024Z,14.76
2023-03-21T14:06:11.196Z,14.82
2023-03-21T14:08:41.230Z,14.43
2023-03-21T14:11:14.794Z,14.27
2023-03-21T14:13:51.415Z,14.66
2023-03-21T14:16:21.130Z,14.80
2023-03-21T14:18:55.109Z,14.86
2023-03-21T14:21:25.629Z,14.84
2023-03-21T14:23:59.230Z,14.88
2023-03-21T14:26:30.799Z,15.05
2023-03-21T14:29:00.299Z,15.01
2023-03-21T14:31:29.568Z,14.73
2023-03-21T14:33:59.577Z,15.00
2023-03-21T14:36:29.317Z,15.00
2023-03-21T14:39:00.033Z,15.23
2023-03-21T14:41:34.210Z,14.97
2023-03-21T14:44:13.941Z,15.16
2023-03-21T14:46:43.446Z,15.27
2023-03-21T14:49:13.975Z,15.17
2023-03-21T14:51:43.211Z,15.25
2023-03-21T14:54:19.599Z,15.40
2023-03-21T14:56:52.935Z,15.46
2023-03-21T14:59:28.301Z,15.43
2023-03-21T15:02:04.084Z,15.09
2023-03-21T15:04:53.101Z,14.98
2023-03-21T15:07:26.412Z,14.94
2023-03-21T15:09:56.789Z,15.21
2023-03-21T15:12:27.480Z,15.32
2023-03-21T15:14:57.059Z,15.27
2023-03-21T15:17:26.262Z,15.02
2023-03-21T15:19:55.703Z,15.14
2023-03-21T15:22:26.765Z,15.11
2023-03-21T15:24:58.403Z,15.06
2023-03-21T15:27:29.074Z,14.95
2023-03-21T15:29:58.551Z,14.91
2023-03-21T15:32:28.661Z,14.73
2023-03-21T15:35:05.882Z,14.61
2023-03-21T15:37:36.796Z,14.62
2023-03-21T15:40:18.462Z,14.56
2023-03-21T15:42:49.070Z,14.43
2023-03-21T15:45:20.887Z,13.95
2023-03-21T15:47:54.482Z,13.98
2023-03-21T15:50:27.388Z,14.02
2023-03-21T15:52:56.606Z,13.94
2023-03-21T15:55:28.075Z,13.87
2023-03-21T15:58:01.116Z,13.84
2023-03-21T16:00:33.061Z,13.78
2023-03-21T16:03:02.345Z,13.43
2023-03-21T16:05:32.512Z,13.48
2023-03-21T16:08:04.372Z,13.43
2023-03-21T16:10:37.066Z,13.34
2023-03-21T16:13:07.949Z,13.28
2023-03-21T16:15:37.351Z,13.24
2023-03-21T16:18:08.524Z,13.17
2023-03-21T16:20:41.638Z,13.16
2023-03-21T16:23:11.002Z,13.09
2023-03-21T16:25:40.477Z,13.06
2023-03-21T16:28:13.170Z,13.00
2023-03-21T16:30:42.568Z,12.93
2023-03-21T16:33:12.112Z,12.86
2023-03-21T16:35:41.745Z,12.81
2023-03-21T16:38:11.198Z,12.73
2023-03-21T16:40:41.247Z,12.57
2023-03-21T16:43:10.618Z,12.56
2023-03-21T16:45:41.854Z,12.48
2023-03-21T16:48:16.114Z,12.39
2023-03-21T16:50:50.656Z,12.28
2023-03-21T16:53:22.355Z,12.21
2023-03-21T16:55:52.044Z,12.17
2023-03-21T16:58:21.190Z,12.11
2023-03-21T17:00:52.280Z,12.03
2023-03-21T17:03:23.450Z,11.99
2023-03-21T17:05:53.154Z,11.94
2023-03-21T17:08:23.057Z,11.87
2023-03-21T17:10:55.596Z,11.82
2023-03-21T17:13:25.010Z,11.78
2023-03-21T17:15:56.323Z,11.72
2023-03-21T17:18:25.579Z,11.63
2023-03-21T17:20:55.223Z,11.59
2023-03-21T17:23:24.430Z,11.55
2023-03-21T17:25:55.195Z,11.53
2023-03-21T17:28:24.541Z,11.48
2023-03-21T17:30:55.814Z,11.31
2023-03-21T17:33:25.035Z,11.20
2023-03-21T17:35:54.620Z,11.19
2023-03-21T17:38:23.958Z,11.15
2023-03-21T17:40:53.675Z,11.09
2023-03-21T17:43:23.498Z,11.02
2023-03-21T17:45:53.297Z,10.70
2023-03-21T17:48:23.860Z,10.75
2023-03-21T17:51:17.276Z,10.76
2023-03-21T17:53:46.739Z,10.73
2023-03-21T17:56:16.943Z,10.70
2023-03-21T17:58:47.322Z,10.63
2023-03-21T18:01:16.860Z,10.59
2023-03-21T18:03:47.418Z,10.55
2023-03-21T18:06:17.641Z,10.57
2023-03-21T18:08:46.875Z,10.50
2023-03-21T18:11:16.582Z,10.41
2023-03-21T18:13:45.778Z,10.39
2023-03-21T18:16:16.223Z,10.41
2023-03-21T18:18:46.786Z,10.35
2023-03-21T18:21:20.201Z,10.34
2023-03-21T18:23:49.718Z,10.31
2023-03-21T18:26:20.210Z,10.35
2023-03-21T18:29:30.006Z,10.35
2023-03-21T18:31:39.441Z,10.30
2023-03-21T18:34:08.675Z,10.31
2023-03-21T18:36:39.589Z,10.35
2023-03-21T18:39:08.827Z,10.39
2023-03-21T18:41:38.758Z,10.34
2023-03-21T18:44:16.594Z,10.33
2023-03-21T18:46:52.283Z,10.34
2023-03-21T18:50:05.520Z,10.36
2023-03-21T18:52:12.573Z,10.32
2023-03-21T18:54:42.808Z,10.33
2023-03-21T19:00:01.616Z,10.23
2023-03-21T19:02:31.138Z,10.25
2023-03-21T19:05:00.383Z,10.27
2023-03-21T19:07:31.518Z,10.30
2023-03-21T19:10:16.960Z,10.26
2023-03-21T19:12:47.879Z,10.22
2023-03-21T19:15:19.755Z,10.24
2023-03-21T19:20:40.270Z,10.23
2023-03-21T19:23:11.858Z,10.27
2023-03-21T19:25:43.998Z,10.22
2023-03-21T19:28:13.670Z,10.21
2023-03-21T19:30:49.769Z,10.20
2023-03-21T19:33:21.215Z,10.16
2023-03-21T19:36:07.652Z,10.12
2023-03-21T19:38:42.176Z,10.06
2023-03-21T19:41:11.381Z,10.03
2023-03-21T19:43:52.835Z,10.02
2023-03-21T19:46:25.483Z,10.05
2023-03-21T19:48:56.490Z,10.03
2023-03-21T19:51:29.747Z,10.03
2023-03-21T19:54:02.140Z,10.03
2023-03-21T19:56:31.841Z,9.97
2023-03-21T19:59:04.370Z,9.93
2023-03-21T20:01:33.579Z,9.94
2023-03-21T20:17:58.079Z,9.82
2023-03-21T20:20:31.920Z,9.81
2023-03-21T20:23:15.970Z,9.79
2023-03-21T20:25:46.320Z,9.76
2023-03-21T20:28:24.693Z,9.72
2023-03-21T20:30:58.653Z,9.68
2023-03-21T20:33:32.318Z,9.66
2023-03-21T20:36:38.192Z,9.64
2023-03-21T20:38:54.075Z,9.65
2023-03-21T20:41:23.336Z,9.64
2023-03-21T20:46:43.716Z,9.62
2023-03-21T20:49:17.511Z,9.61
2023-03-21T20:52:47.819Z,9.61
2023-03-21T20:54:36.154Z,9.61
2023-03-21T20:57:06.046Z,9.60
2023-03-21T20:59:36.913Z,9.61
2023-03-21T21:02:06.250Z,9.59
2023-03-21T21:04:57.307Z,9.57
2023-03-21T21:07:27.674Z,9.53
2023-03-21T21:09:57.866Z,9.56
2023-03-21T21:12:28.726Z,9.54
2023-03-21T21:14:58.196Z,9.49
2023-03-21T21:17:54.548Z,9.50
2023-03-21T21:20:20.643Z,9.50
2023-03-21T21:23:00.184Z,9.53
2023-03-21T21:25:30.860Z,9.54
2023-03-21T21:28:01.847Z,9.53
2023-03-21T21:30:31.778Z,9.55
2023-03-21T21:33:01.058Z,9.54
2023-03-21T21:35:33.683Z,9.57
2023-03-21T21:38:02.834Z,9.57
2023-03-21T21:40:32.219Z,9.59
2023-03-21T21:43:03.698Z,9.58
2023-03-21T21:45:33.665Z,9.61
2023-03-21T21:48:02.819Z,9.62
2023-03-21T21:50:33.828Z,9.63
2023-03-21T21:53:04.075Z,9.64
2023-03-21T21:55:33.579Z,9.64
2023-03-21T21:58:02.835Z,9.66
2023-03-21T22:00:32.716Z,9.71
2023-03-21T22:03:02.127Z,9.69
2023-03-21T22:05:31.878Z,9.68
2023-03-21T22:08:02.439Z,9.68
2023-03-21T22:10:32.496Z,9.70
2023-03-21T22:13:01.614Z,9.70
2023-03-21T22:15:31.135Z,9.66
2023-03-21T22:18:00.355Z,9.69
2023-03-21T22:20:29.886Z,9.68
2023-03-21T22:22:59.731Z,9.72
2023-03-21T22:25:33.159Z,9.70
2023-03-21T22:28:02.367Z,9.66
2023-03-21T22:30:32.045Z,9.67
2023-03-21T22:33:09.265Z,9.67
2023-03-21T22:35:39.670Z,9.67
2023-03-21T22:38:08.818Z,9.65
2023-03-21T22:40:39.889Z,9.61
2023-03-21T22:43:09.382Z,9.64
2023-03-21T22:45:38.957Z,9.64
2023-03-21T22:48:08.173Z,9.63
2023-03-21T22:50:38.192Z,9.63
2023-03-21T22:53:07.417Z,9.62
2023-03-21T22:55:36.907Z,9.62
2023-03-21T22:58:07.451Z,9.61
2023-03-21T23:00:37.376Z,9.57
2023-03-21T23:03:06.682Z,9.60
2023-03-21T23:05:40.109Z,9.61
2023-03-21T23:08:09.212Z,9.64
2023-03-21T23:10:39.482Z,9.64
2023-03-21T23:13:10.284Z,9.65
2023-03-21T23:15:40.019Z,9.68
2023-03-21T23:18:09.218Z,9.70
2023-03-21T23:20:38.848Z,9.70
2023-03-21T23:23:08.177Z,9.69
2023-03-21T23:25:40.148Z,9.70
2023-03-21T23:28:11.937Z,9.71
2023-03-21T23:30:41.836Z,9.74
2023-03-21T23:33:11.673Z,9.73
2023-03-21T23:35:41.161Z,9.78
2023-03-21T23:38:10.263Z,9.78
2023-03-21T23:40:40.038Z,9.76
2023-03-21T23:43:09.318Z,9.79
2023-03-21T23:45:40.426Z,9.81
2023-03-21T23:48:09.603Z,9.79
2023-03-21T23:50:39.153Z,9.84
2023-03-21T23:53:08.443Z,9.81
2023-03-21T23:55:38.924Z,9.84
2023-03-21T23:58:09.340Z,9.81
